Terminal Aerodrome Forecast
Issued by NWS

Home | Current Version | Previous Version | Text Only | Print | Product List | Glossary On
Versions: 1 2 3 4 5 6 7 8 9 10 11 12 13 14 15 16 17 18 19 20 21 22
000
FTUS44 KSJT 201600 AAE
TAFSOA
TAF AMD
KSOA 201625Z 2016/2112 17011G17KT P6SM OVC014
     FM201900 18012KT P6SM VCTS BKN020CB
     FM210600 19010KT P6SM OVC005=

USA.gov is the U.S. government's official web portal to all federal, state and local government web resources and services.